Stations météo

Publicité
Lus-La-Croix-Haute, France (7587): Température de l'air & dewpoint: 20.06.2017 07:00:00 - 26.06.2017 07:00:00 (CEST)Lus-La-Croix-Haute, France (7587): Vitesse du vent & gusts: 20.06.2017 07:00:00 - 26.06.2017 07:00:00 (CEST)Lus-La-Croix-Haute, France (7587): Direction du vent: 20.06.2017 07:00:00 - 26.06.2017 07:00:00 (CEST)Lus-La-Croix-Haute, France (7587): Quantités de précipitations: 20.06.2017 07:00:00 - 26.06.2017 07:00:00 (CEST)
Date & Time tt [°C] td [°C] ff [km/h] ff [knt] fx [km/h] fx [knt] dd rr [mm]
26.06.2017 07:00:00 - - - - - - - -
26.06.2017 06:00:00 12,5 9,9 4 2 8 4 NE 0,0
26.06.2017 05:00:00 12,6 10,0 4 2 9 5 ESE 0,0
26.06.2017 04:00:00 13,1 10,1 4 2 9 5 E 0,0
26.06.2017 03:00:00 13,9 10,1 5 3 11 6 NNE 0,0
26.06.2017 02:00:00 14,3 10,1 2 1 15 8 N -
26.06.2017 01:00:00 14,7 10,5 5 3 18 10 N 0,0
26.06.2017 00:00:00 15,8 10,8 13 7 28 15 NNW 0,0
25.06.2017 23:00:00 15,2 10,8 9 5 22 12 NNW 0,0
25.06.2017 22:00:00 16,4 11,5 11 6 21 11 NNW 0,0
25.06.2017 21:00:00 18,7 12,2 13 7 29 16 NW 0,0
25.06.2017 20:00:00 21,8 11,8 18 10 37 20 NNW -
25.06.2017 19:00:00 23,2 13,4 16 9 42 23 NW 0,0
25.06.2017 18:00:00 23,7 13,3 18 10 39 21 NW 0,0
25.06.2017 17:00:00 24,3 14,1 18 10 39 21 NW 0,0
25.06.2017 16:00:00 24,6 12,5 15 8 37 20 NW 0,0
25.06.2017 15:00:00 23,6 12,3 13 7 34 18 NNW 0,0
25.06.2017 14:00:00 22,1 13,4 16 9 37 20 NNW -
25.06.2017 13:00:00 20,6 12,3 15 8 35 19 NNW 0,0
25.06.2017 12:00:00 19,0 13,8 18 10 35 19 NW 0,0
25.06.2017 11:00:00 17,4 13,1 13 7 39 21 NNW 0,0
25.06.2017 10:00:00 16,0 13,5 18 10 29 16 NW 0,0
25.06.2017 09:00:00 15,8 14,2 15 8 34 18 NW 0,0
25.06.2017 08:00:00 14,8 13,3 8 4 22 12 NW -
25.06.2017 07:00:00 14,1 13,5 4 2 9 5 N 0,0
25.06.2017 06:00:00 13,9 13,1 5 3 8 4 NNE 0,0
25.06.2017 05:00:00 14,5 13,7 4 2 21 11 E 0,2
25.06.2017 04:00:00 14,8 13,7 8 4 18 10 WNW 0,7
25.06.2017 03:00:00 16,8 13,9 9 5 48 26 W 3,0
25.06.2017 02:00:00 19,2 12,7 11 6 28 15 NNW -
25.06.2017 01:00:00 18,1 15,0 4 2 16 9 ENE 0,0
25.06.2017 00:00:00 18,1 15,0 4 2 15 8 N 0,0
24.06.2017 23:00:00 19,7 16,5 4 2 8 4 E 0,0
24.06.2017 22:00:00 21,0 16,8 4 2 16 9 WSW 0,0
24.06.2017 21:00:00 21,8 16,7 9 5 24 13 NW 0,0
24.06.2017 20:00:00 23,0 17,2 4 2 28 15 NE -
24.06.2017 19:00:00 25,0 16,7 13 7 29 16 NNW 0,0
24.06.2017 18:00:00 28,5 16,4 15 8 34 18 NW 0,0
24.06.2017 17:00:00 30,1 16,9 15 8 31 17 WNW 0,0
24.06.2017 16:00:00 31,1 11,0 15 8 34 18 NW 0,0
24.06.2017 15:00:00 31,4 13,2 8 4 24 13 WNW 0,0
24.06.2017 14:00:00 30,0 13,3 9 5 24 13 WNW -
24.06.2017 13:00:00 29,8 12,3 4 2 18 10 E 0,0
24.06.2017 12:00:00 27,7 16,6 8 4 16 9 WNW 0,0
24.06.2017 11:00:00 26,0 17,6 8 4 16 9 WNW 0,0
24.06.2017 10:00:00 24,0 16,5 4 2 9 5 ENE 0,0
24.06.2017 09:00:00 21,0 16,2 4 2 8 4 N 0,0
24.06.2017 08:00:00 18,0 15,4 2 1 8 4 ENE -
24.06.2017 07:00:00 16,0 13,5 5 3 11 6 SSE 0,0
24.06.2017 06:00:00 15,9 13,7 4 2 8 4 N 0,0
24.06.2017 05:00:00 15,7 13,0 4 2 9 5 SSW 0,0
24.06.2017 04:00:00 15,0 12,9 4 2 9 5 NNW 0,0
24.06.2017 03:00:00 15,5 12,8 4 2 9 5 NW 0,0
24.06.2017 02:00:00 16,0 13,1 2 1 8 4 ENE -
24.06.2017 01:00:00 16,7 13,4 2 1 8 4 NE 0,0
24.06.2017 00:00:00 17,7 13,4 4 2 8 4 SSW 0,0
23.06.2017 23:00:00 19,4 13,8 2 1 11 6 NNE 0,0
23.06.2017 22:00:00 21,7 14,6 2 1 11 6 SSE 0,0
23.06.2017 21:00:00 23,7 14,7 8 4 21 11 NW 0,0
23.06.2017 20:00:00 24,7 14,5 5 3 18 10 N -
23.06.2017 19:00:00 25,2 13,4 11 6 21 11 WNW 0,0
23.06.2017 18:00:00 25,9 16,4 9 5 28 15 NW 0,0
23.06.2017 17:00:00 28,7 13,8 16 9 34 18 NW 0,0
23.06.2017 16:00:00 31,1 14,3 15 8 39 21 NW 0,0
23.06.2017 15:00:00 30,2 14,3 16 9 35 19 WNW 0,0
23.06.2017 14:00:00 29,6 14,6 16 9 34 18 WNW -
23.06.2017 13:00:00 29,1 11,6 9 5 26 14 N 0,0
23.06.2017 12:00:00 28,1 14,0 13 7 29 16 NNW 0,0
23.06.2017 11:00:00 27,4 13,4 13 7 29 16 NNW 0,0
23.06.2017 10:00:00 23,7 17,0 2 1 8 4 SW 0,0
23.06.2017 09:00:00 18,3 17,3 2 1 5 3 W 0,0
23.06.2017 08:00:00 15,5 15,2 2 1 4 2 S -
23.06.2017 07:00:00 13,9 13,7 2 1 4 2 N 0,0
23.06.2017 06:00:00 13,6 13,3 2 1 4 2 SE 0,0
23.06.2017 05:00:00 14,2 13,7 2 1 5 3 S 0,0
23.06.2017 04:00:00 15,0 14,7 2 1 4 2 NNE 0,2
23.06.2017 03:00:00 15,4 14,8 2 1 8 4 SSE 0,0
23.06.2017 02:00:00 15,9 15,3 4 2 5 3 SE -
23.06.2017 01:00:00 16,7 16,1 2 1 5 3 S 0,0
23.06.2017 00:00:00 17,3 16,5 2 1 5 3 N 0,0
22.06.2017 23:00:00 18,1 16,8 2 1 8 4 S 0,0
22.06.2017 22:00:00 19,5 17,3 2 1 8 4 N 0,0
22.06.2017 21:00:00 22,0 18,8 2 1 11 6 ENE 0,0
22.06.2017 20:00:00 24,5 17,5 2 1 22 12 SSE -
22.06.2017 19:00:00 25,1 14,8 15 8 34 18 NW 0,0
22.06.2017 18:00:00 27,1 17,3 8 4 24 13 WNW 0,0
22.06.2017 17:00:00 28,7 17,3 9 5 31 17 WNW 0,0
22.06.2017 16:00:00 28,6 15,2 16 9 35 19 S 0,0
22.06.2017 15:00:00 29,8 9,3 9 5 26 14 S 0,0
22.06.2017 14:00:00 28,8 11,8 11 6 31 17 SSW -
22.06.2017 13:00:00 27,2 13,5 13 7 26 14 SSW 0,0
22.06.2017 12:00:00 25,6 13,1 15 8 26 14 SSW 0,0
22.06.2017 11:00:00 24,0 13,5 4 2 15 8 N 0,0
22.06.2017 10:00:00 20,2 15,0 2 1 8 4 W 0,0
22.06.2017 09:00:00 15,8 14,7 2 1 5 3 W 0,0
22.06.2017 08:00:00 12,6 12,3 2 1 4 2 WSW -
22.06.2017 07:00:00 10,6 10,3 2 1 4 2 SSE 0,0
22.06.2017 06:00:00 10,5 10,0 2 1 8 4 S 0,0
22.06.2017 05:00:00 11,3 10,8 4 2 8 4 NNE 0,0
22.06.2017 04:00:00 11,3 10,7 2 1 4 2 N 0,0
22.06.2017 03:00:00 11,5 10,9 2 1 4 2 ESE 0,0
22.06.2017 02:00:00 11,8 10,9 2 1 4 2 E -
22.06.2017 01:00:00 12,4 11,5 2 1 5 3 NE 0,2
22.06.2017 00:00:00 12,9 11,6 2 1 8 4 S 0,0
21.06.2017 23:00:00 13,6 12,2 2 1 8 4 NNW 0,0
21.06.2017 22:00:00 15,1 13,3 2 1 9 5 S 0,0
21.06.2017 21:00:00 17,1 13,0 5 3 28 15 NNW 0,2
21.06.2017 20:00:00 20,9 12,1 15 8 59 32 S -
21.06.2017 19:00:00 23,5 13,4 4 2 21 11 N 0,0
21.06.2017 18:00:00 23,2 13,9 5 3 29 16 W 0,0
21.06.2017 17:00:00 23,0 13,7 5 3 39 21 NE 0,0
21.06.2017 16:00:00 28,0 13,1 21 11 41 22 WNW 0,0
21.06.2017 15:00:00 29,3 13,9 15 8 37 20 NW 0,0
21.06.2017 14:00:00 29,1 14,5 16 9 35 19 WNW -
21.06.2017 13:00:00 27,8 12,2 18 10 34 18 WNW 0,0
21.06.2017 12:00:00 26,8 12,1 18 10 34 18 WNW 0,0
21.06.2017 11:00:00 25,7 12,9 13 7 24 13 WNW 0,0
21.06.2017 10:00:00 22,4 13,7 2 1 8 4 SW 0,0
21.06.2017 09:00:00 18,5 12,9 2 1 5 3 SW 0,0
21.06.2017 08:00:00 14,4 12,8 4 2 5 3 E -
21.06.2017 07:00:00 12,4 11,5 0 0 4 2 S 0,0
21.06.2017 06:00:00 12,4 11,3 4 2 8 4 SE 0,0
21.06.2017 05:00:00 13,1 11,5 2 1 5 3 N 0,0
21.06.2017 04:00:00 13,7 11,2 2 1 4 2 ENE 0,0
21.06.2017 03:00:00 14,2 11,9 4 2 5 3 E 0,0
21.06.2017 02:00:00 14,8 11,8 2 1 8 4 SSE -
21.06.2017 01:00:00 15,5 11,9 2 1 5 3 SSE 0,0
21.06.2017 00:00:00 16,3 12,1 2 1 5 3 W 0,0
20.06.2017 23:00:00 17,8 12,3 2 1 13 7 SSW 0,0
20.06.2017 22:00:00 20,0 12,0 5 3 21 11 N 0,0
20.06.2017 21:00:00 22,7 12,6 9 5 18 10 N 0,0
20.06.2017 20:00:00 25,0 12,9 8 4 26 14 NW -
20.06.2017 19:00:00 26,5 13,3 13 7 34 18 WNW 0,0
20.06.2017 18:00:00 28,7 12,6 13 7 31 17 W 0,0
20.06.2017 17:00:00 29,3 11,8 13 7 28 15 W 0,0
20.06.2017 16:00:00 28,9 11,0 8 4 29 16 WSW 0,0
20.06.2017 15:00:00 28,7 9,4 11 6 28 15 S 0,0
20.06.2017 14:00:00 27,9 11,5 8 4 22 12 SSW -
20.06.2017 13:00:00 27,5 11,5 9 5 26 14 SSE 0,0
20.06.2017 12:00:00 26,0 11,7 13 7 22 12 SSW 0,0
20.06.2017 11:00:00 24,5 11,4 8 4 15 8 S 0,0
20.06.2017 10:00:00 20,7 13,6 4 2 8 4 NW 0,0
20.06.2017 09:00:00 16,1 12,5 2 1 5 3 NW 0,0
20.06.2017 08:00:00 12,0 11,7 2 1 4 2 W -
20.06.2017 07:00:00 10,4 9,8 2 1 4 2 SSE 0,0

tt = Température de l'air
td = dewpoint
ff = Vitesse du vent
fx = gusts
dd = Direction du vent
rr = Quantités de précipitations

stations d'obs. à proximité